sensor_id;sensor_type;location;lat;lon;timestamp;pressure;altitude;pressure_sealevel;temperature
73734;BMP280;62039;50.000;9.064;2022-09-30T00:00:31;99535.19;;;7.99
73734;BMP280;62039;50.000;9.064;2022-09-30T00:02:57;99537.31;;;7.96
73734;BMP280;62039;50.000;9.064;2022-09-30T00:05:25;99529.00;;;7.92
73734;BMP280;62039;50.000;9.064;2022-09-30T00:07:52;99539.09;;;7.87
73734;BMP280;62039;50.000;9.064;2022-09-30T00:10:18;99528.38;;;7.82
73734;BMP280;62039;50.000;9.064;2022-09-30T00:12:45;99538.41;;;7.77
73734;BMP280;62039;50.000;9.064;2022-09-30T00:15:11;99540.53;;;7.73
73734;BMP280;62039;50.000;9.064;2022-09-30T00:17:38;99545.09;;;7.71
73734;BMP280;62039;50.000;9.064;2022-09-30T00:20:05;99543.63;;;7.69
73734;BMP280;62039;50.000;9.064;2022-09-30T00:22:33;99547.19;;;7.68
73734;BMP280;62039;50.000;9.064;2022-09-30T00:25:00;99540.69;;;7.64
73734;BMP280;62039;50.000;9.064;2022-09-30T00:27:26;99541.81;;;7.61
73734;BMP280;62039;50.000;9.064;2022-09-30T00:29:53;99555.78;;;7.60
73734;BMP280;62039;50.000;9.064;2022-09-30T00:32:19;99549.78;;;7.60
73734;BMP280;62039;50.000;9.064;2022-09-30T00:34:46;99542.94;;;7.59
73734;BMP280;62039;50.000;9.064;2022-09-30T00:37:12;99541.31;;;7.58
73734;BMP280;62039;50.000;9.064;2022-09-30T00:39:40;99549.13;;;7.58
73734;BMP280;62039;50.000;9.064;2022-09-30T00:42:10;99548.28;;;7.57
73734;BMP280;62039;50.000;9.064;2022-09-30T00:44:49;99546.84;;;7.55
73734;BMP280;62039;50.000;9.064;2022-09-30T00:47:43;99545.50;;;7.51
73734;BMP280;62039;50.000;9.064;2022-09-30T00:50:21;99549.25;;;7.48
73734;BMP280;62039;50.000;9.064;2022-09-30T00:52:52;99540.63;;;7.48
73734;BMP280;62039;50.000;9.064;2022-09-30T00:55:28;99549.38;;;7.46
73734;BMP280;62039;50.000;9.064;2022-09-30T00:57:58;99540.94;;;7.44
73734;BMP280;62039;50.000;9.064;2022-09-30T01:00:26;99554.06;;;7.43
73734;BMP280;62039;50.000;9.064;2022-09-30T01:02:53;99552.47;;;7.42
73734;BMP280;62039;50.000;9.064;2022-09-30T01:05:21;99556.03;;;7.41
73734;BMP280;62039;50.000;9.064;2022-09-30T01:07:48;99553.75;;;7.38
73734;BMP280;62039;50.000;9.064;2022-09-30T01:10:14;99553.06;;;7.36
73734;BMP280;62039;50.000;9.064;2022-09-30T01:12:42;99558.44;;;7.34
73734;BMP280;62039;50.000;9.064;2022-09-30T01:15:09;99562.16;;;7.32
73734;BMP280;62039;50.000;9.064;2022-09-30T01:17:46;99563.28;;;7.29
73734;BMP280;62039;50.000;9.064;2022-09-30T01:20:32;99564.44;;;7.27
73734;BMP280;62039;50.000;9.064;2022-09-30T01:23:15;99563.91;;;7.23
73734;BMP280;62039;50.000;9.064;2022-09-30T01:26:06;99567.00;;;7.19
73734;BMP280;62039;50.000;9.064;2022-09-30T01:31:45;99564.88;;;7.14
73734;BMP280;62039;50.000;9.064;2022-09-30T01:34:23;99564.19;;;7.12
73734;BMP280;62039;50.000;9.064;2022-09-30T01:37:06;99564.50;;;7.09
73734;BMP280;62039;50.000;9.064;2022-09-30T01:39:44;99569.06;;;7.07
73734;BMP280;62039;50.000;9.064;2022-09-30T01:42:19;99575.34;;;7.04
73734;BMP280;62039;50.000;9.064;2022-09-30T01:44:53;99572.91;;;7.03
73734;BMP280;62039;50.000;9.064;2022-09-30T01:47:25;99578.44;;;7.00
73734;BMP280;62039;50.000;9.064;2022-09-30T01:49:56;99582.97;;;6.98
73734;BMP280;62039;50.000;9.064;2022-09-30T01:52:30;99582.28;;;6.96
73734;BMP280;62039;50.000;9.064;2022-09-30T01:55:02;99585.88;;;6.95
73734;BMP280;62039;50.000;9.064;2022-09-30T01:57:38;99585.22;;;6.93
73734;BMP280;62039;50.000;9.064;2022-09-30T02:00:08;99594.94;;;6.91
73734;BMP280;62039;50.000;9.064;2022-09-30T02:02:39;99599.44;;;6.89
73734;BMP280;62039;50.000;9.064;2022-09-30T02:05:13;99594.44;;;6.87
73734;BMP280;62039;50.000;9.064;2022-09-30T02:07:45;99598.13;;;6.85
73734;BMP280;62039;50.000;9.064;2022-09-30T02:10:15;99596.50;;;6.84
73734;BMP280;62039;50.000;9.064;2022-09-30T02:12:46;99595.84;;;6.82
73734;BMP280;62039;50.000;9.064;2022-09-30T02:15:16;99596.16;;;6.79
73734;BMP280;62039;50.000;9.064;2022-09-30T02:17:48;99599.72;;;6.78
73734;BMP280;62039;50.000;9.064;2022-09-30T02:20:21;99600.03;;;6.75
73734;BMP280;62039;50.000;9.064;2022-09-30T02:22:50;99593.50;;;6.71
73734;BMP280;62039;50.000;9.064;2022-09-30T02:25:21;99592.84;;;6.68
73734;BMP280;62039;50.000;9.064;2022-09-30T02:27:53;99590.56;;;6.65
73734;BMP280;62039;50.000;9.064;2022-09-30T02:30:20;99602.88;;;6.63
73734;BMP280;62039;50.000;9.064;2022-09-30T02:32:50;99603.81;;;6.62
73734;BMP280;62039;50.000;9.064;2022-09-30T02:35:21;99607.38;;;6.61
73734;BMP280;62039;50.000;9.064;2022-09-30T02:37:51;99613.56;;;6.60
73734;BMP280;62039;50.000;9.064;2022-09-30T02:40:22;99607.69;;;6.58
73734;BMP280;62039;50.000;9.064;2022-09-30T02:42:50;99613.84;;;6.57
73734;BMP280;62039;50.000;9.064;2022-09-30T02:45:19;99607.84;;;6.57
73734;BMP280;62039;50.000;9.064;2022-09-30T02:47:58;99607.34;;;6.53
73734;BMP280;62039;50.000;9.064;2022-09-30T02:50:31;99613.78;;;6.49
73734;BMP280;62039;50.000;9.064;2022-09-30T02:53:09;99616.69;;;6.46
73734;BMP280;62039;50.000;9.064;2022-09-30T02:55:44;99617.28;;;6.40
73734;BMP280;62039;50.000;9.064;2022-09-30T02:58:16;99614.28;;;6.35
73734;BMP280;62039;50.000;9.064;2022-09-30T03:00:45;99610.38;;;6.31
73734;BMP280;62039;50.000;9.064;2022-09-30T03:03:17;99630.44;;;6.29
73734;BMP280;62039;50.000;9.064;2022-09-30T03:05:45;99631.72;;;6.25
73734;BMP280;62039;50.000;9.064;2022-09-30T03:08:11;99636.53;;;6.20
73734;BMP280;62039;50.000;9.064;2022-09-30T03:10:38;99645.28;;;6.19
73734;BMP280;62039;50.000;9.064;2022-09-30T03:13:16;99648.97;;;6.16
73734;BMP280;62039;50.000;9.064;2022-09-30T03:15:56;99656.25;;;6.13
73734;BMP280;62039;50.000;9.064;2022-09-30T03:18:39;99661.72;;;6.10
73734;BMP280;62039;50.000;9.064;2022-09-30T03:21:21;99659.25;;;6.08
73734;BMP280;62039;50.000;9.064;2022-09-30T03:24:06;99662.97;;;6.06
73734;BMP280;62039;50.000;9.064;2022-09-30T03:26:38;99657.13;;;6.04
73734;BMP280;62039;50.000;9.064;2022-09-30T03:29:16;99653.84;;;6.02
73734;BMP280;62039;50.000;9.064;2022-09-30T03:31:54;99648.84;;;6.00
73734;BMP280;62039;50.000;9.064;2022-09-30T03:34:28;99653.19;;;6.00
73734;BMP280;62039;50.000;9.064;2022-09-30T03:36:59;99655.47;;;6.03
73734;BMP280;62039;50.000;9.064;2022-09-30T03:39:38;99648.38;;;6.05
73734;BMP280;62039;50.000;9.064;2022-09-30T03:42:11;99646.47;;;6.07
73734;BMP280;62039;50.000;9.064;2022-09-30T03:44:40;99637.06;;;6.06
73734;BMP280;62039;50.000;9.064;2022-09-30T03:47:10;99644.16;;;6.04
73734;BMP280;62039;50.000;9.064;2022-09-30T03:49:42;99646.88;;;6.02
73734;BMP280;62039;50.000;9.064;2022-09-30T03:52:11;99652.38;;;5.99
73734;BMP280;62039;50.000;9.064;2022-09-30T03:54:45;99653.19;;;6.00
73734;BMP280;62039;50.000;9.064;2022-09-30T03:57:12;99649.78;;;5.99
73734;BMP280;62039;50.000;9.064;2022-09-30T03:59:38;99651.56;;;5.99
73734;BMP280;62039;50.000;9.064;2022-09-30T04:02:05;99655.78;;;6.00
73734;BMP280;62039;50.000;9.064;2022-09-30T04:04:31;99650.59;;;6.00
73734;BMP280;62039;50.000;9.064;2022-09-30T04:06:59;99650.59;;;6.00
73734;BMP280;62039;50.000;9.064;2022-09-30T04:09:26;99655.78;;;6.00
73734;BMP280;62039;50.000;9.064;2022-09-30T04:11:52;99649.94;;;5.98
73734;BMP280;62039;50.000;9.064;2022-09-30T04:14:19;99652.53;;;5.98
73734;BMP280;62039;50.000;9.064;2022-09-30T04:16:45;99646.53;;;5.97
73734;BMP280;62039;50.000;9.064;2022-09-30T04:19:18;99645.69;;;5.97
73734;BMP280;62039;50.000;9.064;2022-09-30T04:21:45;99649.25;;;5.96
73734;BMP280;62039;50.000;9.064;2022-09-30T04:24:13;99661.25;;;5.97
73734;BMP280;62039;50.000;9.064;2022-09-30T04:26:39;99657.03;;;5.96
73734;BMP280;62039;50.000;9.064;2022-09-30T04:29:06;99659.63;;;5.96
73734;BMP280;62039;50.000;9.064;2022-09-30T04:31:32;99658.81;;;5.95
73734;BMP280;62039;50.000;9.064;2022-09-30T04:33:59;99657.97;;;5.95
73734;BMP280;62039;50.000;9.064;2022-09-30T04:36:26;99665.13;;;5.93
73734;BMP280;62039;50.000;9.064;2022-09-30T04:38:52;99677.41;;;5.91
73734;BMP280;62039;50.000;9.064;2022-09-30T04:41:20;99695.53;;;5.91
73734;BMP280;62039;50.000;9.064;2022-09-30T04:43:47;99691.31;;;5.89
73734;BMP280;62039;50.000;9.064;2022-09-30T04:46:14;99700.03;;;5.88
73734;BMP280;62039;50.000;9.064;2022-09-30T04:48:41;99702.00;;;5.86
73734;BMP280;62039;50.000;9.064;2022-09-30T04:51:08;99713.31;;;5.85
73734;BMP280;62039;50.000;9.064;2022-09-30T04:53:34;99715.22;;;5.83
73734;BMP280;62039;50.000;9.064;2022-09-30T04:56:01;99711.81;;;5.83
73734;BMP280;62039;50.000;9.064;2022-09-30T04:58:29;99713.72;;;5.81
73734;BMP280;62039;50.000;9.064;2022-09-30T05:01:02;99714.72;;;5.80
73734;BMP280;62039;50.000;9.064;2022-09-30T05:03:29;99717.56;;;5.77
73734;BMP280;62039;50.000;9.064;2022-09-30T05:05:56;99720.31;;;5.75
73734;BMP280;62039;50.000;9.064;2022-09-30T05:08:23;99722.25;;;5.73
73734;BMP280;62039;50.000;9.064;2022-09-30T05:10:53;99725.78;;;5.72
73734;BMP280;62039;50.000;9.064;2022-09-30T05:13:20;99728.66;;;5.69
73734;BMP280;62039;50.000;9.064;2022-09-30T05:15:48;99724.28;;;5.70
73734;BMP280;62039;50.000;9.064;2022-09-30T05:18:15;99719.25;;;5.68
73734;BMP280;62039;50.000;9.064;2022-09-30T05:20:42;99728.78;;;5.68
73734;BMP280;62039;50.000;9.064;2022-09-30T05:23:08;99722.78;;;5.67
73734;BMP280;62039;50.000;9.064;2022-09-30T05:25:35;99722.13;;;5.65
73734;BMP280;62039;50.000;9.064;2022-09-30T05:28:01;99722.25;;;5.64
73734;BMP280;62039;50.000;9.064;2022-09-30T05:30:28;99727.44;;;5.64
73734;BMP280;62039;50.000;9.064;2022-09-30T05:32:56;99717.22;;;5.62
73734;BMP280;62039;50.000;9.064;2022-09-30T05:35:22;99727.88;;;5.59
73734;BMP280;62039;50.000;9.064;2022-09-30T05:37:49;99727.19;;;5.57
73734;BMP280;62039;50.000;9.064;2022-09-30T05:40:15;99731.88;;;5.54
73734;BMP280;62039;50.000;9.064;2022-09-30T05:42:42;99733.78;;;5.52
73734;BMP280;62039;50.000;9.064;2022-09-30T05:45:08;99741.81;;;5.48
73734;BMP280;62039;50.000;9.064;2022-09-30T05:47:35;99755.59;;;5.49
73734;BMP280;62039;50.000;9.064;2022-09-30T05:50:04;99759.13;;;5.48
73734;BMP280;62039;50.000;9.064;2022-09-30T05:52:30;99771.94;;;5.49
73734;BMP280;62039;50.000;9.064;2022-09-30T05:54:57;99781.50;;;5.49
73734;BMP280;62039;50.000;9.064;2022-09-30T05:57:24;99783.13;;;5.50
73734;BMP280;62039;50.000;9.064;2022-09-30T05:59:50;99785.72;;;5.50
73734;BMP280;62039;50.000;9.064;2022-09-30T06:02:16;99801.13;;;5.52
73734;BMP280;62039;50.000;9.064;2022-09-30T06:04:43;99793.22;;;5.53
73734;BMP280;62039;50.000;9.064;2022-09-30T06:07:11;99802.47;;;5.56
73734;BMP280;62039;50.000;9.064;2022-09-30T06:09:38;99808.47;;;5.56
73734;BMP280;62039;50.000;9.064;2022-09-30T06:12:05;99809.16;;;5.58
73734;BMP280;62039;50.000;9.064;2022-09-30T06:14:31;99815.03;;;5.60
73734;BMP280;62039;50.000;9.064;2022-09-30T06:16:58;99821.00;;;5.61
73734;BMP280;62039;50.000;9.064;2022-09-30T06:19:24;99813.91;;;5.63
73734;BMP280;62039;50.000;9.064;2022-09-30T06:21:51;99816.25;;;5.66
73734;BMP280;62039;50.000;9.064;2022-09-30T06:24:19;99818.25;;;5.72
73734;BMP280;62039;50.000;9.064;2022-09-30T06:26:45;99818.78;;;5.75
73734;BMP280;62039;50.000;9.064;2022-09-30T06:29:12;99826.97;;;5.80
73734;BMP280;62039;50.000;9.064;2022-09-30T06:31:38;99825.59;;;5.86
73734;BMP280;62039;50.000;9.064;2022-09-30T06:34:05;99827.63;;;5.92
73734;BMP280;62039;50.000;9.064;2022-09-30T06:36:32;99830.47;;;5.99
73734;BMP280;62039;50.000;9.064;2022-09-30T06:38:59;99847.09;;;6.06
73734;BMP280;62039;50.000;9.064;2022-09-30T06:41:27;99844.06;;;6.10
73734;BMP280;62039;50.000;9.064;2022-09-30T06:43:54;99829.03;;;6.14
73734;BMP280;62039;50.000;9.064;2022-09-30T06:46:24;99834.59;;;6.19
73734;BMP280;62039;50.000;9.064;2022-09-30T06:48:56;99839.22;;;6.25
73734;BMP280;62039;50.000;9.064;2022-09-30T06:51:38;99837.97;;;6.29
73734;BMP280;62039;50.000;9.064;2022-09-30T06:54:04;99840.66;;;6.37
73734;BMP280;62039;50.000;9.064;2022-09-30T06:56:32;99839.97;;;6.45
73734;BMP280;62039;50.000;9.064;2022-09-30T06:58:58;99850.59;;;6.51
73734;BMP280;62039;50.000;9.064;2022-09-30T07:01:25;99851.63;;;6.58
73734;BMP280;62039;50.000;9.064;2022-09-30T07:03:51;99866.34;;;6.68
73734;BMP280;62039;50.000;9.064;2022-09-30T07:06:20;99858.50;;;6.77
73734;BMP280;62039;50.000;9.064;2022-09-30T07:08:46;99857.63;;;6.86
73734;BMP280;62039;50.000;9.064;2022-09-30T07:11:13;99862.91;;;6.94
73734;BMP280;62039;50.000;9.064;2022-09-30T07:13:41;99861.84;;;7.05
73734;BMP280;62039;50.000;9.064;2022-09-30T07:16:08;99870.41;;;7.15
73734;BMP280;62039;50.000;9.064;2022-09-30T07:18:34;99869.50;;;7.24
73734;BMP280;62039;50.000;9.064;2022-09-30T07:21:01;99869.28;;;7.35
73734;BMP280;62039;50.000;9.064;2022-09-30T07:23:27;99870.81;;;7.46
73734;BMP280;62039;50.000;9.064;2022-09-30T07:25:55;99871.56;;;7.56
73734;BMP280;62039;50.000;9.064;2022-09-30T07:28:22;99872.28;;;7.66
73734;BMP280;62039;50.000;9.064;2022-09-30T07:30:50;99860.81;;;7.77
73734;BMP280;62039;50.000;9.064;2022-09-30T07:33:19;99870.03;;;7.89
73734;BMP280;62039;50.000;9.064;2022-09-30T07:35:50;99862.63;;;8.02
73734;BMP280;62039;50.000;9.064;2022-09-30T07:38:17;99866.56;;;8.14
73734;BMP280;62039;50.000;9.064;2022-09-30T07:40:51;99865.31;;;8.27
73734;BMP280;62039;50.000;9.064;2022-09-30T07:43:18;99868.47;;;8.38
73734;BMP280;62039;50.000;9.064;2022-09-30T07:45:44;99869.66;;;8.52
73734;BMP280;62039;50.000;9.064;2022-09-30T07:48:12;99871.69;;;8.66
73734;BMP280;62039;50.000;9.064;2022-09-30T07:50:39;99874.50;;;8.81
73734;BMP280;62039;50.000;9.064;2022-09-30T07:53:05;99878.41;;;8.93
73734;BMP280;62039;50.000;9.064;2022-09-30T07:55:32;99872.44;;;9.09
73734;BMP280;62039;50.000;9.064;2022-09-30T07:57:59;99875.38;;;9.22
73734;BMP280;62039;50.000;9.064;2022-09-30T08:00:25;99883.53;;;9.35
73734;BMP280;62039;50.000;9.064;2022-09-30T08:03:08;99880.59;;;9.46
73734;BMP280;62039;50.000;9.064;2022-09-30T08:05:39;99871.13;;;9.53
73734;BMP280;62039;50.000;9.064;2022-09-30T08:08:06;99868.25;;;9.64
73734;BMP280;62039;50.000;9.064;2022-09-30T08:10:33;99883.53;;;9.75
73734;BMP280;62039;50.000;9.064;2022-09-30T08:12:59;99888.75;;;9.84
73734;BMP280;62039;50.000;9.064;2022-09-30T08:15:31;99886.59;;;9.95
73734;BMP280;62039;50.000;9.064;2022-09-30T08:17:58;99891.28;;;10.08
73734;BMP280;62039;50.000;9.064;2022-09-30T08:20:24;99895.00;;;10.21
73734;BMP280;62039;50.000;9.064;2022-09-30T08:22:53;99883.22;;;10.34
73734;BMP280;62039;50.000;9.064;2022-09-30T08:25:20;99890.50;;;10.46
73734;BMP280;62039;50.000;9.064;2022-09-30T08:27:46;99876.94;;;10.59
73734;BMP280;62039;50.000;9.064;2022-09-30T08:30:13;99876.22;;;10.73
73734;BMP280;62039;50.000;9.064;2022-09-30T08:32:40;99882.50;;;10.87
73734;BMP280;62039;50.000;9.064;2022-09-30T08:35:07;99894.00;;;11.00
73734;BMP280;62039;50.000;9.064;2022-09-30T08:37:33;99898.88;;;11.12
73734;BMP280;62039;50.000;9.064;2022-09-30T08:40:02;99896.97;;;11.20
73734;BMP280;62039;50.000;9.064;2022-09-30T08:42:37;99899.81;;;11.33
73734;BMP280;62039;50.000;9.064;2022-09-30T08:45:24;99901.06;;;11.46
73734;BMP280;62039;50.000;9.064;2022-09-30T08:48:02;99897.69;;;11.60
73734;BMP280;62039;50.000;9.064;2022-09-30T08:50:35;99904.59;;;11.75
73734;BMP280;62039;50.000;9.064;2022-09-30T08:53:07;99904.44;;;11.92
73734;BMP280;62039;50.000;9.064;2022-09-30T08:55:38;99906.69;;;12.09
73734;BMP280;62039;50.000;9.064;2022-09-30T08:58:14;99898.47;;;12.27
73734;BMP280;62039;50.000;9.064;2022-09-30T09:00:42;99900.78;;;12.45
73734;BMP280;62039;50.000;9.064;2022-09-30T09:03:10;99902.19;;;12.62
73734;BMP280;62039;50.000;9.064;2022-09-30T09:05:44;99895.56;;;12.81
73734;BMP280;62039;50.000;9.064;2022-09-30T09:08:25;99892.53;;;12.99
73734;BMP280;62039;50.000;9.064;2022-09-30T09:10:59;99890.84;;;13.12
73734;BMP280;62039;50.000;9.064;2022-09-30T09:13:38;99885.19;;;13.30
73734;BMP280;62039;50.000;9.064;2022-09-30T09:16:11;99883.13;;;13.47
73734;BMP280;62039;50.000;9.064;2022-09-30T09:18:46;99874.53;;;13.59
73734;BMP280;62039;50.000;9.064;2022-09-30T09:21:22;99869.38;;;13.72
73734;BMP280;62039;50.000;9.064;2022-09-30T09:23:55;99870.09;;;13.88
73734;BMP280;62039;50.000;9.064;2022-09-30T09:26:24;99882.13;;;14.03
73734;BMP280;62039;50.000;9.064;2022-09-30T09:29:02;99869.69;;;14.19
73734;BMP280;62039;50.000;9.064;2022-09-30T09:31:33;99874.38;;;14.30
73734;BMP280;62039;50.000;9.064;2022-09-30T09:34:07;99869.81;;;14.45
73734;BMP280;62039;50.000;9.064;2022-09-30T09:36:48;99871.88;;;14.56
73734;BMP280;62039;50.000;9.064;2022-09-30T09:39:33;99871.72;;;14.71
73734;BMP280;62039;50.000;9.064;2022-09-30T09:42:15;99871.78;;;14.84
73734;BMP280;62039;50.000;9.064;2022-09-30T09:44:51;99870.78;;;14.98
73734;BMP280;62039;50.000;9.064;2022-09-30T09:47:20;99867.19;;;15.12
73734;BMP280;62039;50.000;9.064;2022-09-30T09:49:49;99863.75;;;15.25
73734;BMP280;62039;50.000;9.064;2022-09-30T09:52:37;99861.72;;;15.40
73734;BMP280;62039;50.000;9.064;2022-09-30T09:55:06;99865.19;;;15.54
73734;BMP280;62039;50.000;9.064;2022-09-30T09:57:34;99863.97;;;15.69
73734;BMP280;62039;50.000;9.064;2022-09-30T10:00:03;99868.22;;;15.84
73734;BMP280;62039;50.000;9.064;2022-09-30T10:02:31;99874.47;;;15.96
73734;BMP280;62039;50.000;9.064;2022-09-30T10:04:57;99872.63;;;16.09
73734;BMP280;62039;50.000;9.064;2022-09-30T10:07:25;99866.91;;;16.26
73734;BMP280;62039;50.000;9.064;2022-09-30T10:10:05;99876.78;;;16.43
73734;BMP280;62039;50.000;9.064;2022-09-30T10:12:34;99878.72;;;16.61
73734;BMP280;62039;50.000;9.064;2022-09-30T10:15:10;99873.34;;;16.81
73734;BMP280;62039;50.000;9.064;2022-09-30T10:17:39;99869.22;;;16.98
73734;BMP280;62039;50.000;9.064;2022-09-30T10:20:16;99881.25;;;17.19
73734;BMP280;62039;50.000;9.064;2022-09-30T10:22:44;99877.88;;;17.37
73734;BMP280;62039;50.000;9.064;2022-09-30T10:25:21;99873.25;;;17.57
73734;BMP280;62039;50.000;9.064;2022-09-30T10:27:55;99876.16;;;17.74
73734;BMP280;62039;50.000;9.064;2022-09-30T10:30:37;99876.63;;;17.89
73734;BMP280;62039;50.000;9.064;2022-09-30T10:33:11;99874.44;;;18.04
73734;BMP280;62039;50.000;9.064;2022-09-30T10:38:33;99859.47;;;18.34
73734;BMP280;62039;50.000;9.064;2022-09-30T10:41:01;99851.94;;;18.50
73734;BMP280;62039;50.000;9.064;2022-09-30T10:43:33;99860.53;;;18.63
73734;BMP280;62039;50.000;9.064;2022-09-30T10:46:02;99850.56;;;18.77
73734;BMP280;62039;50.000;9.064;2022-09-30T10:48:50;99848.34;;;18.92
73734;BMP280;62039;50.000;9.064;2022-09-30T10:51:25;99844.47;;;19.06
73734;BMP280;62039;50.000;9.064;2022-09-30T10:53:54;99849.56;;;19.19
73734;BMP280;62039;50.000;9.064;2022-09-30T10:56:43;99839.78;;;19.32
73734;BMP280;62039;50.000;9.064;2022-09-30T10:59:29;99836.41;;;19.48
73734;BMP280;62039;50.000;9.064;2022-09-30T11:02:02;99842.59;;;19.60
73734;BMP280;62039;50.000;9.064;2022-09-30T11:04:34;99841.53;;;19.73
73734;BMP280;62039;50.000;9.064;2022-09-30T11:07:12;99834.69;;;19.88
73734;BMP280;62039;50.000;9.064;2022-09-30T11:09:46;99839.50;;;20.03
73734;BMP280;62039;50.000;9.064;2022-09-30T11:12:20;99831.31;;;20.16
73734;BMP280;62039;50.000;9.064;2022-09-30T11:14:55;99838.78;;;20.31
73734;BMP280;62039;50.000;9.064;2022-09-30T11:17:28;99837.69;;;20.44
73734;BMP280;62039;50.000;9.064;2022-09-30T11:20:05;99847.47;;;20.55
73734;BMP280;62039;50.000;9.064;2022-09-30T11:22:42;99833.09;;;20.67
73734;BMP280;62039;50.000;9.064;2022-09-30T11:25:14;99829.13;;;20.82
73734;BMP280;62039;50.000;9.064;2022-09-30T11:27:59;99822.72;;;20.94
73734;BMP280;62039;50.000;9.064;2022-09-30T11:30:32;99820.31;;;21.09
73734;BMP280;62039;50.000;9.064;2022-09-30T11:33:12;99818.09;;;21.23
73734;BMP280;62039;50.000;9.064;2022-09-30T11:35:48;99815.97;;;21.37
73734;BMP280;62039;50.000;9.064;2022-09-30T11:38:46;99819.34;;;21.49
73734;BMP280;62039;50.000;9.064;2022-09-30T11:41:21;99825.13;;;21.63
73734;BMP280;62039;50.000;9.064;2022-09-30T11:43:56;99820.25;;;21.76
73734;BMP280;62039;50.000;9.064;2022-09-30T11:49:38;99819.41;;;21.92
73734;BMP280;62039;50.000;9.064;2022-09-30T11:52:14;99821.63;;;22.01
73734;BMP280;62039;50.000;9.064;2022-09-30T11:54:56;99819.34;;;22.09
73734;BMP280;62039;50.000;9.064;2022-09-30T11:57:31;99817.84;;;22.18
73734;BMP280;62039;50.000;9.064;2022-09-30T12:00:03;99823.28;;;22.28
73734;BMP280;62039;50.000;9.064;2022-09-30T12:02:34;99822.09;;;22.41
73734;BMP280;62039;50.000;9.064;2022-09-30T12:05:04;99822.22;;;22.51
73734;BMP280;62039;50.000;9.064;2022-09-30T12:07:38;99813.81;;;22.64
73734;BMP280;62039;50.000;9.064;2022-09-30T12:10:16;99816.09;;;22.78
73734;BMP280;62039;50.000;9.064;2022-09-30T12:12:46;99809.81;;;22.89
73734;BMP280;62039;50.000;9.064;2022-09-30T12:15:17;99809.06;;;22.98
73734;BMP280;62039;50.000;9.064;2022-09-30T12:17:47;99819.34;;;23.12
73734;BMP280;62039;50.000;9.064;2022-09-30T12:20:18;99814.88;;;23.22
73734;BMP280;62039;50.000;9.064;2022-09-30T12:22:48;99808.53;;;23.33
73734;BMP280;62039;50.000;9.064;2022-09-30T12:25:17;99810.22;;;23.44
73734;BMP280;62039;50.000;9.064;2022-09-30T12:27:48;99817.22;;;23.56
73734;BMP280;62039;50.000;9.064;2022-09-30T12:30:19;99817.56;;;23.64
73734;BMP280;62039;50.000;9.064;2022-09-30T12:33:03;99820.75;;;23.61
73734;BMP280;62039;50.000;9.064;2022-09-30T12:35:58;99814.31;;;23.57
73734;BMP280;62039;50.000;9.064;2022-09-30T12:38:40;99811.09;;;23.55
73734;BMP280;62039;50.000;9.064;2022-09-30T12:41:23;99819.31;;;23.54
73734;BMP280;62039;50.000;9.064;2022-09-30T12:44:21;99820.09;;;23.44
73734;BMP280;62039;50.000;9.064;2022-09-30T12:47:02;99825.66;;;23.37
73734;BMP280;62039;50.000;9.064;2022-09-30T12:49:35;99826.44;;;23.38
73734;BMP280;62039;50.000;9.064;2022-09-30T12:52:05;99825.66;;;23.37
73734;BMP280;62039;50.000;9.064;2022-09-30T12:54:35;99823.72;;;23.33
73734;BMP280;62039;50.000;9.064;2022-09-30T12:57:06;99823.16;;;23.26
73734;BMP280;62039;50.000;9.064;2022-09-30T12:59:35;99820.69;;;23.19
73734;BMP280;62039;50.000;9.064;2022-09-30T13:02:04;99819.88;;;23.14
73734;BMP280;62039;50.000;9.064;2022-09-30T13:04:35;99815.88;;;23.11
73734;BMP280;62039;50.000;9.064;2022-09-30T13:07:20;99826.78;;;23.09
73734;BMP280;62039;50.000;9.064;2022-09-30T13:10:05;99830.00;;;23.12
73734;BMP280;62039;50.000;9.064;2022-09-30T13:12:47;99825.97;;;23.09
73734;BMP280;62039;50.000;9.064;2022-09-30T13:15:40;99827.03;;;23.08
73734;BMP280;62039;50.000;9.064;2022-09-30T13:21:20;99827.28;;;23.06
73734;BMP280;62039;50.000;9.064;2022-09-30T13:23:48;99820.81;;;23.02
73734;BMP280;62039;50.000;9.064;2022-09-30T13:26:39;99828.72;;;22.92
73734;BMP280;62039;50.000;9.064;2022-09-30T13:32:08;99834.88;;;22.66
73734;BMP280;62039;50.000;9.064;2022-09-30T13:34:53;99829.16;;;22.52
73734;BMP280;62039;50.000;9.064;2022-09-30T13:37:36;99828.47;;;22.40
73734;BMP280;62039;50.000;9.064;2022-09-30T13:40:04;99831.03;;;22.30
73734;BMP280;62039;50.000;9.064;2022-09-30T13:42:38;99833.31;;;22.21
73734;BMP280;62039;50.000;9.064;2022-09-30T13:45:12;99828.19;;;22.15
73734;BMP280;62039;50.000;9.064;2022-09-30T13:47:43;99827.88;;;22.11
73734;BMP280;62039;50.000;9.064;2022-09-30T13:50:13;99831.84;;;22.09
73734;BMP280;62039;50.000;9.064;2022-09-30T13:52:44;99829.38;;;22.02
73734;BMP280;62039;50.000;9.064;2022-09-30T13:55:16;99828.75;;;21.95
73734;BMP280;62039;50.000;9.064;2022-09-30T13:57:52;99828.09;;;21.88
73734;BMP280;62039;50.000;9.064;2022-09-30T14:00:21;99831.19;;;21.80
73734;BMP280;62039;50.000;9.064;2022-09-30T14:03:10;99831.53;;;21.67
73734;BMP280;62039;50.000;9.064;2022-09-30T14:05:55;99828.41;;;21.53
73734;BMP280;62039;50.000;9.064;2022-09-30T14:08:35;99823.69;;;21.38
73734;BMP280;62039;50.000;9.064;2022-09-30T14:11:17;99830.09;;;21.26
73734;BMP280;62039;50.000;9.064;2022-09-30T14:13:56;99831.00;;;21.14
73734;BMP280;62039;50.000;9.064;2022-09-30T14:17:06;99826.19;;;20.95
73734;BMP280;62039;50.000;9.064;2022-09-30T14:19:50;99816.75;;;20.87
73734;BMP280;62039;50.000;9.064;2022-09-30T14:22:20;99830.41;;;20.79
73734;BMP280;62039;50.000;9.064;2022-09-30T14:24:49;99821.53;;;20.73
73734;BMP280;62039;50.000;9.064;2022-09-30T14:27:28;99823.31;;;20.68
73734;BMP280;62039;50.000;9.064;2022-09-30T14:30:03;99834.06;;;20.61
73734;BMP280;62039;50.000;9.064;2022-09-30T14:32:32;99827.06;;;20.55
73734;BMP280;62039;50.000;9.064;2022-09-30T14:35:03;99826.13;;;20.50
73734;BMP280;62039;50.000;9.064;2022-09-30T14:37:34;99824.19;;;20.45
73734;BMP280;62039;50.000;9.064;2022-09-30T14:40:08;99821.47;;;20.40
73734;BMP280;62039;50.000;9.064;2022-09-30T14:42:36;99815.50;;;20.33
73734;BMP280;62039;50.000;9.064;2022-09-30T14:45:06;99825.44;;;20.26
73734;BMP280;62039;50.000;9.064;2022-09-30T14:47:35;99817.13;;;20.22
73734;BMP280;62039;50.000;9.064;2022-09-30T14:50:08;99821.06;;;20.20
73734;BMP280;62039;50.000;9.064;2022-09-30T14:52:41;99818.88;;;20.17
73734;BMP280;62039;50.000;9.064;2022-09-30T14:55:25;99816.09;;;20.12
73734;BMP280;62039;50.000;9.064;2022-09-30T14:57:54;99825.81;;;20.06